sensor_id;sensor_type;location;lat;lon;timestamp;pressure;altitude;pressure_sealevel;temperature;humidity
9187;BME280;7273;48.902;9.410;2024-01-11T00:00:36;98988.41;;;-3.08;73.25
9187;BME280;7273;48.902;9.410;2024-01-11T00:03:03;98985.25;;;-3.12;72.88
9187;BME280;7273;48.902;9.410;2024-01-11T00:05:28;98985.44;;;-3.13;73.33
9187;BME280;7273;48.902;9.410;2024-01-11T00:07:54;98978.94;;;-3.03;73.29
9187;BME280;7273;48.902;9.410;2024-01-11T00:10:20;98987.25;;;-3.14;73.36
9187;BME280;7273;48.902;9.410;2024-01-11T00:12:46;98984.72;;;-2.99;73.60
9187;BME280;7273;48.902;9.410;2024-01-11T00:15:12;98980.44;;;-3.00;73.12
9187;BME280;7273;48.902;9.410;2024-01-11T00:17:38;98980.13;;;-3.05;72.87
9187;BME280;7273;48.902;9.410;2024-01-11T00:20:04;98985.44;;;-3.13;73.08
9187;BME280;7273;48.902;9.410;2024-01-11T00:22:30;98983.44;;;-3.11;73.25
9187;BME280;7273;48.902;9.410;2024-01-11T00:24:56;98977.50;;;-3.13;73.16
9187;BME280;7273;48.902;9.410;2024-01-11T00:27:21;98978.34;;;-3.13;73.24
9187;BME280;7273;48.902;9.410;2024-01-11T00:29:47;98986.09;;;-3.19;73.22
9187;BME280;7273;48.902;9.410;2024-01-11T00:32:12;98984.59;;;-3.14;73.14
9187;BME280;7273;48.902;9.410;2024-01-11T00:34:38;98977.31;;;-3.12;73.48
9187;BME280;7273;48.902;9.410;2024-01-11T00:37:04;98987.09;;;-3.20;73.47
9187;BME280;7273;48.902;9.410;2024-01-11T00:39:30;98985.28;;;-3.20;73.26
9187;BME280;7273;48.902;9.410;2024-01-11T00:41:56;98984.75;;;-3.15;73.25
9187;BME280;7273;48.902;9.410;2024-01-11T00:44:21;98983.63;;;-3.13;73.46
9187;BME280;7273;48.902;9.410;2024-01-11T00:46:47;98986.25;;;-3.21;73.50
9187;BME280;7273;48.902;9.410;2024-01-11T00:49:13;98984.94;;;-3.33;73.49
9187;BME280;7273;48.902;9.410;2024-01-11T00:51:38;98987.59;;;-3.33;73.48
9187;BME280;7273;48.902;9.410;2024-01-11T00:54:04;98986.44;;;-3.30;73.37
9187;BME280;7273;48.902;9.410;2024-01-11T00:56:30;98986.44;;;-3.30;73.65
9187;BME280;7273;48.902;9.410;2024-01-11T00:58:56;98996.34;;;-3.40;73.34
9187;BME280;7273;48.902;9.410;2024-01-11T01:01:21;98992.56;;;-3.38;73.67
9187;BME280;7273;48.902;9.410;2024-01-11T01:03:47;98991.56;;;-3.45;73.37
9187;BME280;7273;48.902;9.410;2024-01-11T01:06:13;98995.03;;;-3.52;73.46
9187;BME280;7273;48.902;9.410;2024-01-11T01:08:38;98996.50;;;-3.58;73.45
9187;BME280;7273;48.902;9.410;2024-01-11T01:11:04;99001.63;;;-3.56;73.86
9187;BME280;7273;48.902;9.410;2024-01-11T01:13:30;99002.28;;;-3.62;73.96
9187;BME280;7273;48.902;9.410;2024-01-11T01:15:55;99013.66;;;-3.70;73.90
9187;BME280;7273;48.902;9.410;2024-01-11T01:18:21;99009.03;;;-3.68;74.11
9187;BME280;7273;48.902;9.410;2024-01-11T01:20:47;99014.34;;;-3.68;74.22
9187;BME280;7273;48.902;9.410;2024-01-11T01:23:13;99016.97;;;-3.60;74.31
9187;BME280;7273;48.902;9.410;2024-01-11T01:25:38;99015.16;;;-3.67;73.66
9187;BME280;7273;48.902;9.410;2024-01-11T01:28:04;99019.31;;;-3.57;73.93
9187;BME280;7273;48.902;9.410;2024-01-11T01:30:30;99012.88;;;-3.62;73.77
9187;BME280;7273;48.902;9.410;2024-01-11T01:32:56;99016.81;;;-3.66;73.88
9187;BME280;7273;48.902;9.410;2024-01-11T01:35:22;99021.94;;;-3.65;73.63
9187;BME280;7273;48.902;9.410;2024-01-11T01:37:47;99028.56;;;-3.61;74.03
9187;BME280;7273;48.902;9.410;2024-01-11T01:40:13;99023.09;;;-3.59;73.92
9187;BME280;7273;48.902;9.410;2024-01-11T01:42:45;99027.09;;;-3.55;73.78
9187;BME280;7273;48.902;9.410;2024-01-11T01:45:11;99020.97;;;-3.56;74.14
9187;BME280;7273;48.902;9.410;2024-01-11T01:47:41;99032.72;;;-3.50;74.02
9187;BME280;7273;48.902;9.410;2024-01-11T01:50:08;99028.06;;;-3.48;73.80
9187;BME280;7273;48.902;9.410;2024-01-11T01:52:36;99031.53;;;-3.48;74.04
9187;BME280;7273;48.902;9.410;2024-01-11T01:55:04;99024.63;;;-3.41;74.09
9187;BME280;7273;48.902;9.410;2024-01-11T01:57:32;99028.72;;;-3.46;73.87
9187;BME280;7273;48.902;9.410;2024-01-11T02:00:00;99025.06;;;-3.53;73.95
9187;BME280;7273;48.902;9.410;2024-01-11T02:02:28;99037.00;;;-3.41;74.24
9187;BME280;7273;48.902;9.410;2024-01-11T02:04:56;99022.13;;;-3.42;74.14
9187;BME280;7273;48.902;9.410;2024-01-11T02:07:22;99020.13;;;-3.40;74.28
9187;BME280;7273;48.902;9.410;2024-01-11T02:09:50;99019.00;;;-3.46;74.20
9187;BME280;7273;48.902;9.410;2024-01-11T02:12:17;99019.97;;;-3.47;74.06
9187;BME280;7273;48.902;9.410;2024-01-11T02:14:44;99029.72;;;-3.47;74.13
9187;BME280;7273;48.902;9.410;2024-01-11T02:17:09;99035.34;;;-3.50;74.10
9187;BME280;7273;48.902;9.410;2024-01-11T02:19:35;99034.84;;;-3.54;74.06
9187;BME280;7273;48.902;9.410;2024-01-11T02:22:06;99033.34;;;-3.56;73.91
9187;BME280;7273;48.902;9.410;2024-01-11T02:24:33;99037.31;;;-3.60;73.88
9187;BME280;7273;48.902;9.410;2024-01-11T02:27:01;99047.53;;;-3.65;73.77
9187;BME280;7273;48.902;9.410;2024-01-11T02:29:27;99042.72;;;-3.70;73.91
9187;BME280;7273;48.902;9.410;2024-01-11T02:31:54;99039.94;;;-3.68;73.93
9187;BME280;7273;48.902;9.410;2024-01-11T02:34:21;99038.28;;;-3.69;74.17
9187;BME280;7273;48.902;9.410;2024-01-11T02:36:46;99038.28;;;-3.69;74.06
9187;BME280;7273;48.902;9.410;2024-01-11T02:39:13;99047.88;;;-3.68;74.19
9187;BME280;7273;48.902;9.410;2024-01-11T02:41:42;99039.13;;;-3.69;74.06
9187;BME280;7273;48.902;9.410;2024-01-11T02:44:08;99040.91;;;-3.69;74.29
9187;BME280;7273;48.902;9.410;2024-01-11T02:46:33;99043.06;;;-3.73;74.08
9187;BME280;7273;48.902;9.410;2024-01-11T02:48:59;99039.59;;;-3.73;73.97
9187;BME280;7273;48.902;9.410;2024-01-11T02:51:24;99029.84;;;-3.65;74.20
9187;BME280;7273;48.902;9.410;2024-01-11T02:53:49;99026.41;;;-3.65;74.05
9187;BME280;7273;48.902;9.410;2024-01-11T02:56:15;99028.38;;;-3.75;73.86
9187;BME280;7273;48.902;9.410;2024-01-11T02:58:41;99029.03;;;-3.73;73.96
9187;BME280;7273;48.902;9.410;2024-01-11T03:01:06;99025.38;;;-3.80;74.35
9187;BME280;7273;48.902;9.410;2024-01-11T03:03:31;99030.66;;;-3.80;73.93
9187;BME280;7273;48.902;9.410;2024-01-11T03:05:57;99025.38;;;-3.80;74.30
9187;BME280;7273;48.902;9.410;2024-01-11T03:08:22;99027.84;;;-3.87;74.03
9187;BME280;7273;48.902;9.410;2024-01-11T03:10:47;99022.41;;;-3.85;74.19
9187;BME280;7273;48.902;9.410;2024-01-11T03:13:13;99017.44;;;-3.88;73.95
9187;BME280;7273;48.902;9.410;2024-01-11T03:15:38;99021.22;;;-3.91;74.07
9187;BME280;7273;48.902;9.410;2024-01-11T03:18:04;99021.88;;;-3.97;74.15
9187;BME280;7273;48.902;9.410;2024-01-11T03:20:29;99016.91;;;-4.00;74.43
9187;BME280;7273;48.902;9.410;2024-01-11T03:22:55;99020.22;;;-4.06;74.24
9187;BME280;7273;48.902;9.410;2024-01-11T03:25:20;99018.72;;;-4.00;74.25
9187;BME280;7273;48.902;9.410;2024-01-11T03:27:45;99014.94;;;-4.06;73.97
9187;BME280;7273;48.902;9.410;2024-01-11T03:30:11;99011.63;;;-4.00;74.39
9187;BME280;7273;48.902;9.410;2024-01-11T03:32:37;99010.81;;;-4.00;74.23
9187;BME280;7273;48.902;9.410;2024-01-11T03:35:07;99004.84;;;-4.02;74.26
9187;BME280;7273;48.902;9.410;2024-01-11T03:37:32;99004.38;;;-4.06;73.99
9187;BME280;7273;48.902;9.410;2024-01-11T03:39:58;99001.41;;;-4.03;74.15
9187;BME280;7273;48.902;9.410;2024-01-11T03:42:24;99002.69;;;-4.07;74.30
9187;BME280;7273;48.902;9.410;2024-01-11T03:44:49;99004.19;;;-4.13;74.21
9187;BME280;7273;48.902;9.410;2024-01-11T03:47:15;99010.78;;;-4.08;74.13
9187;BME280;7273;48.902;9.410;2024-01-11T03:49:40;99005.84;;;-4.12;74.36
9187;BME280;7273;48.902;9.410;2024-01-11T03:52:05;99008.97;;;-4.16;74.31
9187;BME280;7273;48.902;9.410;2024-01-11T03:54:31;99008.97;;;-4.16;73.93
9187;BME280;7273;48.902;9.410;2024-01-11T03:56:57;99004.84;;;-4.11;74.52
9187;BME280;7273;48.902;9.410;2024-01-11T03:59:22;99005.31;;;-4.15;74.28
9187;BME280;7273;48.902;9.410;2024-01-11T04:01:47;99007.28;;;-4.17;74.10
9187;BME280;7273;48.902;9.410;2024-01-11T04:04:13;99007.97;;;-4.15;74.16
9187;BME280;7273;48.902;9.410;2024-01-11T04:06:39;99001.84;;;-4.16;74.13
9187;BME280;7273;48.902;9.410;2024-01-11T04:09:04;99000.53;;;-4.20;73.91
9187;BME280;7273;48.902;9.410;2024-01-11T04:11:29;98999.91;;;-4.05;74.46
9187;BME280;7273;48.902;9.410;2024-01-11T04:13:55;99006.00;;;-4.13;74.24
9187;BME280;7273;48.902;9.410;2024-01-11T04:16:21;99006.66;;;-4.11;74.27
9187;BME280;7273;48.902;9.410;2024-01-11T04:18:47;99007.63;;;-4.12;74.21
9187;BME280;7273;48.902;9.410;2024-01-11T04:21:25;99008.66;;;-4.05;74.07
9187;BME280;7273;48.902;9.410;2024-01-11T04:23:54;99003.88;;;-4.01;74.65
9187;BME280;7273;48.902;9.410;2024-01-11T04:26:20;98999.44;;;-4.01;74.31
9187;BME280;7273;48.902;9.410;2024-01-11T04:28:45;98997.09;;;-4.04;74.05
9187;BME280;7273;48.902;9.410;2024-01-11T04:31:12;98997.09;;;-4.04;73.74
9187;BME280;7273;48.902;9.410;2024-01-11T04:33:41;98999.56;;;-4.02;73.96
9187;BME280;7273;48.902;9.410;2024-01-11T04:36:08;98994.63;;;-4.05;74.29
9187;BME280;7273;48.902;9.410;2024-01-11T04:38:33;98997.59;;;-4.08;74.04
9187;BME280;7273;48.902;9.410;2024-01-11T04:40:58;98995.78;;;-4.08;73.85
9187;BME280;7273;48.902;9.410;2024-01-11T04:43:24;98999.91;;;-3.97;73.94
9187;BME280;7273;48.902;9.410;2024-01-11T04:45:49;99004.38;;;-3.98;74.44
9187;BME280;7273;48.902;9.410;2024-01-11T04:48:15;98996.97;;;-3.94;73.99
9187;BME280;7273;48.902;9.410;2024-01-11T04:50:40;98990.03;;;-3.95;74.09
9187;BME280;7273;48.902;9.410;2024-01-11T04:53:05;98992.34;;;-3.84;74.30
9187;BME280;7273;48.902;9.410;2024-01-11T04:55:32;98994.34;;;-3.86;74.32
9187;BME280;7273;48.902;9.410;2024-01-11T04:57:57;98991.63;;;-4.11;73.95
9187;BME280;7273;48.902;9.410;2024-01-11T05:00:23;99000.84;;;-4.23;74.28
9187;BME280;7273;48.902;9.410;2024-01-11T05:02:48;99001.47;;;-4.29;74.38
9187;BME280;7273;48.902;9.410;2024-01-11T05:05:14;99000.31;;;-4.34;74.48
9187;BME280;7273;48.902;9.410;2024-01-11T05:07:39;98998.47;;;-4.42;74.68
9187;BME280;7273;48.902;9.410;2024-01-11T05:10:05;99011.66;;;-4.42;74.46
9187;BME280;7273;48.902;9.410;2024-01-11T05:12:31;99013.94;;;-4.47;74.59
9187;BME280;7273;48.902;9.410;2024-01-11T05:14:56;99017.06;;;-4.51;75.02
9187;BME280;7273;48.902;9.410;2024-01-11T05:17:21;99020.09;;;-4.38;75.02
9187;BME280;7273;48.902;9.410;2024-01-11T05:19:47;99020.41;;;-4.41;74.85
9187;BME280;7273;48.902;9.410;2024-01-11T05:22:13;99017.59;;;-4.40;74.81
9187;BME280;7273;48.902;9.410;2024-01-11T05:24:38;99014.28;;;-4.42;74.66
9187;BME280;7273;48.902;9.410;2024-01-11T05:27:04;99022.06;;;-4.40;74.61
9187;BME280;7273;48.902;9.410;2024-01-11T05:29:29;99025.19;;;-4.37;74.73
9187;BME280;7273;48.902;9.410;2024-01-11T05:31:55;99029.00;;;-4.39;74.52
9187;BME280;7273;48.902;9.410;2024-01-11T05:34:20;99032.31;;;-4.37;74.67
9187;BME280;7273;48.902;9.410;2024-01-11T05:36:46;99029.84;;;-4.39;74.36
9187;BME280;7273;48.902;9.410;2024-01-11T05:39:11;99033.63;;;-4.33;74.59
9187;BME280;7273;48.902;9.410;2024-01-11T05:41:36;99031.16;;;-4.35;74.64
9187;BME280;7273;48.902;9.410;2024-01-11T05:44:02;99029.22;;;-4.25;74.59
9187;BME280;7273;48.902;9.410;2024-01-11T05:46:27;99042.09;;;-4.22;74.41
9187;BME280;7273;48.902;9.410;2024-01-11T05:48:53;99044.75;;;-4.22;74.58
9187;BME280;7273;48.902;9.410;2024-01-11T05:51:18;99056.13;;;-4.21;74.33
9187;BME280;7273;48.902;9.410;2024-01-11T05:53:43;99053.97;;;-4.26;74.42
9187;BME280;7273;48.902;9.410;2024-01-11T05:56:10;99056.91;;;-4.29;74.07
9187;BME280;7273;48.902;9.410;2024-01-11T05:58:36;99052.66;;;-4.22;74.21
9187;BME280;7273;48.902;9.410;2024-01-11T06:01:04;99053.97;;;-4.26;74.00
9187;BME280;7273;48.902;9.410;2024-01-11T06:03:29;99048.50;;;-4.32;74.02
9187;BME280;7273;48.902;9.410;2024-01-11T06:05:59;99049.00;;;-4.29;73.92
9187;BME280;7273;48.902;9.410;2024-01-11T06:08:25;99049.19;;;-4.22;74.41
9187;BME280;7273;48.902;9.410;2024-01-11T06:10:50;99061.06;;;-4.26;74.18
9187;BME280;7273;48.902;9.410;2024-01-11T06:13:15;99057.09;;;-4.22;74.39
9187;BME280;7273;48.902;9.410;2024-01-11T06:15:41;99042.13;;;-4.14;74.94
9187;BME280;7273;48.902;9.410;2024-01-11T06:18:07;99049.34;;;-4.24;74.40
9187;BME280;7273;48.902;9.410;2024-01-11T06:20:33;99054.59;;;-4.32;74.29
9187;BME280;7273;48.902;9.410;2024-01-11T06:22:58;99058.56;;;-4.36;74.62
9187;BME280;7273;48.902;9.410;2024-01-11T06:25:23;99061.03;;;-4.34;74.47
9187;BME280;7273;48.902;9.410;2024-01-11T06:27:49;99060.19;;;-4.35;74.72
9187;BME280;7273;48.902;9.410;2024-01-11T06:30:14;99049.81;;;-4.28;74.59
9187;BME280;7273;48.902;9.410;2024-01-11T06:32:40;99045.38;;;-4.28;74.99
9187;BME280;7273;48.902;9.410;2024-01-11T06:35:06;99048.34;;;-4.31;74.64
9187;BME280;7273;48.902;9.410;2024-01-11T06:37:31;99050.94;;;-4.39;74.30
9187;BME280;7273;48.902;9.410;2024-01-11T06:39:57;99043.66;;;-4.45;74.48
9187;BME280;7273;48.902;9.410;2024-01-11T06:42:22;99039.00;;;-4.51;74.82
9187;BME280;7273;48.902;9.410;2024-01-11T06:44:47;99049.31;;;-4.65;74.89
9187;BME280;7273;48.902;9.410;2024-01-11T06:47:13;99054.91;;;-4.68;75.08
9187;BME280;7273;48.902;9.410;2024-01-11T06:49:38;99057.16;;;-4.48;75.48
9187;BME280;7273;48.902;9.410;2024-01-11T06:52:05;99057.75;;;-4.62;74.75
9187;BME280;7273;48.902;9.410;2024-01-11T06:54:30;99068.09;;;-4.68;74.77
9187;BME280;7273;48.902;9.410;2024-01-11T06:56:57;99069.28;;;-4.63;74.84
9187;BME280;7273;48.902;9.410;2024-01-11T06:59:23;99077.94;;;-4.45;75.09
9187;BME280;7273;48.902;9.410;2024-01-11T07:01:48;99092.06;;;-4.62;74.56
9187;BME280;7273;48.902;9.410;2024-01-11T07:04:14;99088.25;;;-4.59;75.01
9187;BME280;7273;48.902;9.410;2024-01-11T07:06:40;99090.94;;;-4.51;74.66
9187;BME280;7273;48.902;9.410;2024-01-11T07:09:05;99080.81;;;-4.64;74.44
9187;BME280;7273;48.902;9.410;2024-01-11T07:11:31;99076.63;;;-4.49;74.96
9187;BME280;7273;48.902;9.410;2024-01-11T07:13:57;99087.28;;;-4.58;74.67
9187;BME280;7273;48.902;9.410;2024-01-11T07:16:23;99090.59;;;-4.56;74.64
9187;BME280;7273;48.902;9.410;2024-01-11T07:18:49;99089.69;;;-4.65;74.32
9187;BME280;7273;48.902;9.410;2024-01-11T07:21:21;99099.75;;;-4.68;74.15
9187;BME280;7273;48.902;9.410;2024-01-11T07:23:48;99096.50;;;-4.62;74.32
9187;BME280;7273;48.902;9.410;2024-01-11T07:26:13;99096.22;;;-4.51;74.52
9187;BME280;7273;48.902;9.410;2024-01-11T07:28:39;99098.97;;;-4.61;74.57
9187;BME280;7273;48.902;9.410;2024-01-11T07:31:04;99092.06;;;-4.62;74.40
9187;BME280;7273;48.902;9.410;2024-01-11T07:33:30;99106.00;;;-4.69;74.28
9187;BME280;7273;48.902;9.410;2024-01-11T07:35:55;99103.41;;;-4.61;74.52
9187;BME280;7273;48.902;9.410;2024-01-11T07:38:20;99104.25;;;-4.61;74.41
9187;BME280;7273;48.902;9.410;2024-01-11T07:40:46;99109.25;;;-4.50;74.70
9187;BME280;7273;48.902;9.410;2024-01-11T07:43:13;99120.44;;;-4.56;74.75
9187;BME280;7273;48.902;9.410;2024-01-11T07:45:39;99135.22;;;-4.63;74.57
9187;BME280;7273;48.902;9.410;2024-01-11T07:48:05;99141.88;;;-4.59;74.58
9187;BME280;7273;48.902;9.410;2024-01-11T07:50:30;99150.75;;;-4.60;74.83
9187;BME280;7273;48.902;9.410;2024-01-11T07:52:56;99154.06;;;-4.58;74.47
9187;BME280;7273;48.902;9.410;2024-01-11T07:55:21;99139.91;;;-4.57;74.58
9187;BME280;7273;48.902;9.410;2024-01-11T07:57:49;99134.56;;;-4.65;74.67
9187;BME280;7273;48.902;9.410;2024-01-11T08:00:15;99135.50;;;-4.74;74.79
9187;BME280;7273;48.902;9.410;2024-01-11T08:02:41;99148.78;;;-4.83;75.09
9187;BME280;7273;48.902;9.410;2024-01-11T08:05:07;99146.09;;;-4.66;75.06
9187;BME280;7273;48.902;9.410;2024-01-11T08:07:32;99152.31;;;-4.49;75.42
9187;BME280;7273;48.902;9.410;2024-01-11T08:09:58;99166.56;;;-4.42;75.56
9187;BME280;7273;48.902;9.410;2024-01-11T08:12:23;99159.75;;;-4.45;75.46
9187;BME280;7273;48.902;9.410;2024-01-11T08:14:49;99158.88;;;-4.53;75.11
9187;BME280;7273;48.902;9.410;2024-01-11T08:17:15;99164.66;;;-4.32;75.41
9187;BME280;7273;48.902;9.410;2024-01-11T08:19:41;99175.34;;;-4.34;75.10
9187;BME280;7273;48.902;9.410;2024-01-11T08:22:10;99180.63;;;-4.34;75.03
9187;BME280;7273;48.902;9.410;2024-01-11T08:24:35;99174.91;;;-4.29;75.00
9187;BME280;7273;48.902;9.410;2024-01-11T08:27:01;99179.22;;;-4.20;75.14
9187;BME280;7273;48.902;9.410;2024-01-11T08:29:26;99169.66;;;-4.21;75.00
9187;BME280;7273;48.902;9.410;2024-01-11T08:31:53;99162.75;;;-4.14;75.00
9187;BME280;7273;48.902;9.410;2024-01-11T08:34:20;99178.31;;;-4.11;74.89
9187;BME280;7273;48.902;9.410;2024-01-11T08:36:46;99183.78;;;-4.04;75.02
9187;BME280;7273;48.902;9.410;2024-01-11T08:39:13;99179.84;;;-4.00;74.62
9187;BME280;7273;48.902;9.410;2024-01-11T08:41:39;99179.50;;;-3.97;74.82
9187;BME280;7273;48.902;9.410;2024-01-11T08:44:05;99173.25;;;-3.96;74.69
9187;BME280;7273;48.902;9.410;2024-01-11T08:46:33;99182.16;;;-3.97;74.96
9187;BME280;7273;48.902;9.410;2024-01-11T08:49:00;99183.63;;;-4.03;74.87
9187;BME280;7273;48.902;9.410;2024-01-11T08:51:28;99177.34;;;-4.02;74.71
9187;BME280;7273;48.902;9.410;2024-01-11T08:53:53;99174.06;;;-3.96;75.02
9187;BME280;7273;48.902;9.410;2024-01-11T08:56:19;99182.19;;;-3.89;74.87
9187;BME280;7273;48.902;9.410;2024-01-11T08:58:44;99186.81;;;-3.91;74.66
9187;BME280;7273;48.902;9.410;2024-01-11T09:01:10;99183.91;;;-3.80;75.28
9187;BME280;7273;48.902;9.410;2024-01-11T09:03:36;99188.16;;;-3.87;74.77
9187;BME280;7273;48.902;9.410;2024-01-11T09:06:04;99190.22;;;-3.73;74.83
9187;BME280;7273;48.902;9.410;2024-01-11T09:08:30;99191.69;;;-3.71;75.06
9187;BME280;7273;48.902;9.410;2024-01-11T09:10:56;99202.50;;;-3.56;75.11
9187;BME280;7273;48.902;9.410;2024-01-11T09:13:23;99199.72;;;-3.39;75.38
9187;BME280;7273;48.902;9.410;2024-01-11T09:15:49;99198.31;;;-3.25;75.14
9187;BME280;7273;48.902;9.410;2024-01-11T09:18:14;99196.50;;;-3.17;75.53
9187;BME280;7273;48.902;9.410;2024-01-11T09:20:41;99198.31;;;-3.09;75.17
9187;BME280;7273;48.902;9.410;2024-01-11T09:23:06;99206.31;;;-2.93;75.84
9187;BME280;7273;48.902;9.410;2024-01-11T09:25:32;99202.19;;;-2.72;75.65
9187;BME280;7273;48.902;9.410;2024-01-11T09:27:59;99196.41;;;-2.51;75.83
9187;BME280;7273;48.902;9.410;2024-01-11T09:30:24;99196.91;;;-2.39;75.86
9187;BME280;7273;48.902;9.410;2024-01-11T09:32:50;99197.56;;;-2.21;75.89
9187;BME280;7273;48.902;9.410;2024-01-11T09:35:15;99191.09;;;-2.27;76.03
9187;BME280;7273;48.902;9.410;2024-01-11T09:37:41;99193.91;;;-2.20;76.02
9187;BME280;7273;48.902;9.410;2024-01-11T09:40:08;99197.19;;;-2.10;76.20
9187;BME280;7273;48.902;9.410;2024-01-11T09:42:39;99195.84;;;-2.14;76.24
9187;BME280;7273;48.902;9.410;2024-01-11T09:45:12;99185.44;;;-2.16;76.15
9187;BME280;7273;48.902;9.410;2024-01-11T09:47:39;99194.06;;;-2.22;75.67
9187;BME280;7273;48.902;9.410;2024-01-11T09:50:06;99190.09;;;-2.18;75.65
9187;BME280;7273;48.902;9.410;2024-01-11T09:52:31;99194.38;;;-2.17;75.82
9187;BME280;7273;48.902;9.410;2024-01-11T09:55:00;99195.22;;;-2.16;75.79
9187;BME280;7273;48.902;9.410;2024-01-11T09:57:29;99195.06;;;-2.15;75.54
9187;BME280;7273;48.902;9.410;2024-01-11T09:59:56;99184.78;;;-2.18;75.63
9187;BME280;7273;48.902;9.410;2024-01-11T10:02:25;99179.50;;;-2.18;75.61
9187;BME280;7273;48.902;9.410;2024-01-11T10:04:54;99176.34;;;-2.13;75.44
9187;BME280;7273;48.902;9.410;2024-01-11T10:07:21;99170.19;;;-2.14;75.58
9187;BME280;7273;48.902;9.410;2024-01-11T10:09:48;99162.56;;;-2.09;75.23
9187;BME280;7273;48.902;9.410;2024-01-11T10:12:13;99156.94;;;-2.06;75.24
9187;BME280;7273;48.902;9.410;2024-01-11T10:14:39;99150.81;;;-1.98;75.04
9187;BME280;7273;48.902;9.410;2024-01-11T10:17:06;99158.41;;;-1.95;74.84
9187;BME280;7273;48.902;9.410;2024-01-11T10:19:32;99163.22;;;-1.99;74.71
9187;BME280;7273;48.902;9.410;2024-01-11T10:21:58;99158.59;;;-1.97;74.68
9187;BME280;7273;48.902;9.410;2024-01-11T10:24:27;99155.09;;;-1.97;74.62
9187;BME280;7273;48.902;9.410;2024-01-11T10:26:57;99158.91;;;-1.92;74.53
9187;BME280;7273;48.902;9.410;2024-01-11T10:29:30;99146.59;;;-1.85;74.56
9187;BME280;7273;48.902;9.410;2024-01-11T10:31:56;99162.50;;;-1.85;74.49
9187;BME280;7273;48.902;9.410;2024-01-11T10:34:23;99158.69;;;-1.82;74.41
9187;BME280;7273;48.902;9.410;2024-01-11T10:36:50;99175.25;;;-1.88;74.65
9187;BME280;7273;48.902;9.410;2024-01-11T10:39:16;99163.50;;;-1.86;74.39
9187;BME280;7273;48.902;9.410;2024-01-11T10:41:47;99167.63;;;-1.83;74.55
9187;BME280;7273;48.902;9.410;2024-01-11T10:44:21;99166.78;;;-1.76;74.40
9187;BME280;7273;48.902;9.410;2024-01-11T10:46:48;99160.66;;;-1.76;74.52
9187;BME280;7273;48.902;9.410;2024-01-11T10:49:18;99163.44;;;-1.70;74.53
9187;BME280;7273;48.902;9.410;2024-01-11T10:51:58;99170.56;;;-1.62;74.41
9187;BME280;7273;48.902;9.410;2024-01-11T10:54:24;99176.00;;;-1.56;74.43
9187;BME280;7273;48.902;9.410;2024-01-11T10:56:51;99180.63;;;-1.58;74.45
9187;BME280;7273;48.902;9.410;2024-01-11T10:59:20;99172.81;;;-1.51;74.33
9187;BME280;7273;48.902;9.410;2024-01-11T11:01:51;99168.81;;;-1.47;74.16
9187;BME280;7273;48.902;9.410;2024-01-11T11:04:18;99174.41;;;-1.42;74.01
9187;BME280;7273;48.902;9.410;2024-01-11T11:06:46;99171.72;;;-1.34;74.00
9187;BME280;7273;48.902;9.410;2024-01-11T11:09:13;99169.91;;;-1.33;74.00
9187;BME280;7273;48.902;9.410;2024-01-11T11:11:40;99168.03;;;-1.25;73.58
9187;BME280;7273;48.902;9.410;2024-01-11T11:14:06;99159.72;;;-1.22;73.71
9187;BME280;7273;48.902;9.410;2024-01-11T11:16:32;99155.06;;;-1.20;73.73
9187;BME280;7273;48.902;9.410;2024-01-11T11:18:58;99153.34;;;-1.13;73.70
9187;BME280;7273;48.902;9.410;2024-01-11T11:21:23;99166.91;;;-1.08;73.52
9187;BME280;7273;48.902;9.410;2024-01-11T11:23:50;99158.47;;;-1.03;73.59
9187;BME280;7273;48.902;9.410;2024-01-11T11:26:16;99157.25;;;-1.01;73.47
9187;BME280;7273;48.902;9.410;2024-01-11T11:28:43;99163.88;;;-0.97;73.55
9187;BME280;7273;48.902;9.410;2024-01-11T11:31:10;99145.66;;;-1.00;73.49
9187;BME280;7273;48.902;9.410;2024-01-11T11:33:36;99145.59;;;-0.92;73.38
9187;BME280;7273;48.902;9.410;2024-01-11T11:36:03;99147.38;;;-0.84;73.33
9187;BME280;7273;48.902;9.410;2024-01-11T11:38:30;99137.88;;;-0.79;73.15
9187;BME280;7273;48.902;9.410;2024-01-11T11:40:59;99131.00;;;-0.73;73.21
9187;BME280;7273;48.902;9.410;2024-01-11T11:43:29;99134.19;;;-0.78;73.08
9187;BME280;7273;48.902;9.410;2024-01-11T11:45:55;99126.53;;;-0.73;72.80
9187;BME280;7273;48.902;9.410;2024-01-11T11:51:15;99141.03;;;-0.61;72.80
9187;BME280;7273;48.902;9.410;2024-01-11T11:53:41;99137.84;;;-0.56;72.83
9187;BME280;7273;48.902;9.410;2024-01-11T11:56:08;99124.38;;;-0.55;72.65
9187;BME280;7273;48.902;9.410;2024-01-11T11:58:38;99110.72;;;-0.52;72.54
9187;BME280;7273;48.902;9.410;2024-01-11T12:01:06;99112.13;;;-0.41;72.75
9187;BME280;7273;48.902;9.410;2024-01-11T12:03:40;99115.59;;;-0.41;72.66
9187;BME280;7273;48.902;9.410;2024-01-11T12:06:07;99124.59;;;-0.42;72.64
9187;BME280;7273;48.902;9.410;2024-01-11T12:08:34;99113.88;;;-0.34;72.26
9187;BME280;7273;48.902;9.410;2024-01-11T12:11:01;99114.34;;;-0.30;72.45
9187;BME280;7273;48.902;9.410;2024-01-11T12:13:27;99109.31;;;-0.25;72.32
9187;BME280;7273;48.902;9.410;2024-01-11T12:15:52;99111.59;;;-0.22;72.30
9187;BME280;7273;48.902;9.410;2024-01-11T12:18:18;99107.31;;;-0.23;72.51
9187;BME280;7273;48.902;9.410;2024-01-11T12:20:44;99111.50;;;-0.14;71.77
9187;BME280;7273;48.902;9.410;2024-01-11T12:23:09;99110.34;;;-0.12;72.00
9187;BME280;7273;48.902;9.410;2024-01-11T12:25:36;99100.13;;;-0.08;72.35
9187;BME280;7273;48.902;9.410;2024-01-11T12:28:01;99108.47;;;0.03;71.92
9187;BME280;7273;48.902;9.410;2024-01-11T12:30:27;99101.16;;;0.06;71.79
9187;BME280;7273;48.902;9.410;2024-01-11T12:32:53;99102.97;;;0.05;71.59
9187;BME280;7273;48.902;9.410;2024-01-11T12:35:20;99100.31;;;0.05;71.45
9187;BME280;7273;48.902;9.410;2024-01-11T12:38:05;99091.63;;;0.11;71.47
9187;BME280;7273;48.902;9.410;2024-01-11T12:40:37;99098.75;;;0.11;71.58
9187;BME280;7273;48.902;9.410;2024-01-11T12:43:07;99091.06;;;0.16;71.55
9187;BME280;7273;48.902;9.410;2024-01-11T12:45:34;99085.16;;;0.20;71.21
9187;BME280;7273;48.902;9.410;2024-01-11T12:48:00;99081.78;;;0.26;71.50
9187;BME280;7273;48.902;9.410;2024-01-11T12:50:26;99078.94;;;0.28;71.49
9187;BME280;7273;48.902;9.410;2024-01-11T12:53:08;99076.91;;;0.30;72.02
9187;BME280;7273;48.902;9.410;2024-01-11T12:55:34;99078.66;;;0.37;71.67
9187;BME280;7273;48.902;9.410;2024-01-11T12:58:09;99064.78;;;0.42;71.33
9187;BME280;7273;48.902;9.410;2024-01-11T13:00:35;99065.69;;;0.49;71.23
9187;BME280;7273;48.902;9.410;2024-01-11T13:03:02;99064.84;;;0.48;71.24
9187;BME280;7273;48.902;9.410;2024-01-11T13:05:28;99067.78;;;0.53;71.65
9187;BME280;7273;48.902;9.410;2024-01-11T13:07:53;99074.00;;;0.60;71.52
9187;BME280;7273;48.902;9.410;2024-01-11T13:10:18;99072.53;;;0.58;71.32
9187;BME280;7273;48.902;9.410;2024-01-11T13:12:45;99076.94;;;0.65;71.11
9187;BME280;7273;48.902;9.410;2024-01-11T13:15:10;99081.66;;;0.70;70.99
9187;BME280;7273;48.902;9.410;2024-01-11T13:17:36;99077.19;;;0.70;71.32
9187;BME280;7273;48.902;9.410;2024-01-11T13:20:01;99086.22;;;0.76;71.44